Time;durP1;ratioP1;P1;durP2;ratioP2;P2;SDS_P1;SDS_P2;PMS_P1;PMS_P2;Temp;Humidity;BMP_temperature;BMP_pressure;BME280_temperature;BME280_humidity;BME280_pressure;Samples;Min_cycle;Max_cycle;Signal;HPM_P1;HPM_P2
2023/02/12 00:01:54;;;;;;;12.77;5.60;;;6.90;99.90;;;;;;5054464;28;20666;-69
2023/02/12 00:04:21;;;;;;;11.80;5.47;;;6.90;99.90;;;;;;5067433;28;20290;-70
2023/02/12 00:06:50;;;;;;;13.10;5.20;;;6.90;99.90;;;;;;5083356;28;20293;-72
2023/02/12 00:09:17;;;;;;;10.90;5.10;;;6.90;99.90;;;;;;5087524;28;20217;-71
2023/02/12 00:11:43;;;;;;;13.50;5.17;;;6.80;99.90;;;;;;5087749;28;20321;-72
2023/02/12 00:14:10;;;;;;;15.37;5.30;;;6.90;99.90;;;;;;5087362;28;20290;-71
2023/02/12 00:16:37;;;;;;;12.03;5.47;;;6.80;99.90;;;;;;5069743;28;20696;-71
2023/02/12 00:19:04;;;;;;;7.47;4.37;;;6.80;99.90;;;;;;5067492;28;20233;-72
2023/02/12 00:21:31;;;;;;;9.50;4.90;;;6.80;99.90;;;;;;5066774;28;20690;-72
2023/02/12 00:23:59;;;;;;;9.53;4.77;;;6.80;99.90;;;;;;5067071;28;20303;-72
2023/02/12 00:26:26;;;;;;;10.80;4.57;;;6.80;99.90;;;;;;5067129;28;20761;-71
2023/02/12 00:28:54;;;;;;;11.83;4.80;;;6.80;99.90;;;;;;5067169;28;20773;-70
2023/02/12 00:31:23;;;;;;;9.47;4.37;;;6.80;99.90;;;;;;5063397;28;20298;-69
2023/02/12 00:33:50;;;;;;;12.93;5.00;;;6.80;99.90;;;;;;5067443;28;20790;-69
2023/02/12 00:36:19;;;;;;;10.63;4.87;;;6.80;99.90;;;;;;5078884;28;20277;-70
2023/02/12 00:38:48;;;;;;;12.53;4.87;;;6.80;99.90;;;;;;5077803;28;20268;-70
2023/02/12 00:41:16;;;;;;;14.80;4.70;;;6.80;99.90;;;;;;5065211;28;20761;-70
2023/02/12 00:43:43;;;;;;;13.67;5.20;;;6.80;99.90;;;;;;5066773;28;20265;-70
2023/02/12 00:46:10;;;;;;;11.57;5.40;;;6.80;99.90;;;;;;5067167;28;20294;-70
2023/02/12 00:48:37;;;;;;;11.00;4.47;;;6.80;99.90;;;;;;5067444;28;20286;-70
2023/02/12 00:51:04;;;;;;;14.57;5.07;;;6.80;99.90;;;;;;5076172;28;20734;-70
2023/02/12 00:53:32;;;;;;;15.07;5.23;;;6.80;99.90;;;;;;5080310;28;20299;-72
2023/02/12 00:55:59;;;;;;;13.70;5.00;;;6.80;99.90;;;;;;5067233;28;20211;-72
2023/02/12 00:58:28;;;;;;;12.53;4.80;;;6.80;99.90;;;;;;5067330;28;20217;-72
2023/02/12 01:00:55;;;;;;;10.13;4.47;;;6.80;99.90;;;;;;5067353;28;20203;-72
2023/02/12 01:03:22;;;;;;;9.73;4.37;;;6.80;99.90;;;;;;5067016;28;20277;-71
2023/02/12 01:05:49;;;;;;;13.80;4.53;;;6.80;99.90;;;;;;5072694;28;20289;-70
2023/02/12 01:08:17;;;;;;;10.83;4.23;;;6.80;99.90;;;;;;5067029;28;20231;-71
2023/02/12 01:10:44;;;;;;;6.93;4.20;;;6.90;99.90;;;;;;5085293;28;20235;-71
2023/02/12 01:13:13;;;;;;;13.37;4.23;;;6.80;99.90;;;;;;5087144;28;20313;-70
2023/02/12 01:15:41;;;;;;;9.37;4.33;;;6.80;99.90;;;;;;5086888;28;20318;-71
2023/02/12 01:18:08;;;;;;;14.57;4.20;;;6.80;99.90;;;;;;5063829;28;20203;-72
2023/02/12 01:20:35;;;;;;;13.90;4.50;;;6.80;99.90;;;;;;5066704;28;20227;-70
2023/02/12 01:23:02;;;;;;;9.27;4.17;;;6.80;99.90;;;;;;5065966;28;20243;-70
2023/02/12 01:25:29;;;;;;;10.80;4.37;;;6.80;99.90;;;;;;5069701;28;20246;-70
2023/02/12 01:27:56;;;;;;;13.97;4.57;;;6.80;99.90;;;;;;5080660;28;20219;-70
2023/02/12 01:30:23;;;;;;;8.80;4.00;;;6.80;99.90;;;;;;5086041;28;20231;-71
2023/02/12 01:32:51;;;;;;;9.90;4.33;;;6.80;99.90;;;;;;5070184;28;20225;-72
2023/02/12 01:35:18;;;;;;;9.63;4.40;;;6.80;99.90;;;;;;5073515;28;20301;-71
2023/02/12 01:37:45;;;;;;;11.30;4.33;;;6.80;99.90;;;;;;5089132;28;20313;-71
2023/02/12 01:40:17;;;;;;;10.13;3.70;;;6.80;99.90;;;;;;5085676;28;20230;-71
2023/02/12 01:42:44;;;;;;;12.27;4.30;;;6.80;99.90;;;;;;5090426;28;20225;-71
2023/02/12 01:45:48;;;;;;;10.33;4.53;;;6.70;99.90;;;;;;5090215;28;20210;-71
2023/02/12 01:48:18;;;;;;;12.40;4.33;;;6.80;99.90;;;;;;5090029;28;20199;-71
2023/02/12 01:50:48;;;;;;;11.57;4.30;;;6.80;99.90;;;;;;5070282;28;20262;-71
2023/02/12 01:53:19;;;;;;;11.87;4.93;;;6.80;99.90;;;;;;5069803;28;20196;-73
2023/02/12 01:55:50;;;;;;;10.43;3.97;;;6.70;99.90;;;;;;5069986;28;20278;-72
2023/02/12 01:58:18;;;;;;;12.17;4.53;;;6.70;99.90;;;;;;5070099;28;20231;-71
2023/02/12 02:00:46;;;;;;;13.43;4.20;;;6.70;99.90;;;;;;5069512;28;20209;-72
2023/02/12 02:03:13;;;;;;;9.07;4.47;;;6.70;99.90;;;;;;5069839;28;20231;-71
2023/02/12 02:05:47;;;;;;;13.03;4.40;;;6.70;99.90;;;;;;5069540;28;20577;-70
2023/02/12 02:08:14;;;;;;;13.53;5.30;;;6.70;99.90;;;;;;5069592;28;20275;-71
2023/02/12 02:10:41;;;;;;;15.40;4.93;;;6.70;99.90;;;;;;5069871;28;20226;-71
2023/02/12 02:15:59;;;;;;;8.53;4.50;;;6.70;99.90;;;;;;5049782;28;20218;-72
2023/02/12 02:18:35;;;;;;;12.60;5.13;;;6.70;99.90;;;;;;5049751;28;20718;-72
2023/02/12 02:21:37;;;;;;;13.27;4.83;;;6.70;99.90;;;;;;5049847;28;20230;-73
2023/02/12 02:24:26;;;;;;;11.30;5.63;;;6.70;99.90;;;;;;5059566;28;20313;-72
2023/02/12 02:27:16;;;;;;;11.63;4.90;;;6.70;99.90;;;;;;5087315;28;20198;-73
2023/02/12 02:30:14;;;;;;;10.97;4.37;;;6.60;99.90;;;;;;5089344;28;20205;-72
2023/02/12 02:32:51;;;;;;;13.60;5.20;;;6.60;99.90;;;;;;5049327;28;20284;-71
2023/02/12 02:35:26;;;;;;;14.57;5.87;;;6.60;99.90;;;;;;5063127;28;20703;-71
2023/02/12 02:38:03;;;;;;;16.37;5.37;;;6.60;99.90;;;;;;5086553;28;20821;-70
2023/02/12 02:40:38;;;;;;;14.97;4.80;;;6.60;99.90;;;;;;5069357;28;20203;-70
2023/02/12 02:43:09;;;;;;;17.13;6.00;;;6.60;99.90;;;;;;5077606;28;20214;-70
2023/02/12 02:45:41;;;;;;;13.43;5.53;;;6.60;99.90;;;;;;5086409;28;20645;-70
2023/02/12 02:48:16;;;;;;;10.97;5.27;;;6.60;99.90;;;;;;5068930;28;20223;-71
2023/02/12 02:50:47;;;;;;;15.17;6.43;;;6.60;99.90;;;;;;5048724;28;20227;-70
2023/02/12 02:53:18;;;;;;;12.87;5.27;;;6.60;99.90;;;;;;5048700;28;20196;-71
2023/02/12 02:55:50;;;;;;;11.90;5.63;;;6.60;99.90;;;;;;5048848;28;20224;-71
2023/02/12 02:58:19;;;;;;;12.97;6.60;;;6.60;99.90;;;;;;5048550;28;20798;-71
2023/02/12 03:00:53;;;;;;;15.80;6.50;;;6.60;99.90;;;;;;5054175;28;20207;-71
2023/02/12 03:03:27;;;;;;;16.67;7.03;;;6.60;99.90;;;;;;5068563;28;20314;-71
2023/02/12 03:06:00;;;;;;;14.53;6.60;;;6.60;99.90;;;;;;5076687;28;20198;-71
2023/02/12 03:08:33;;;;;;;18.87;6.17;;;6.60;99.90;;;;;;5083919;28;20229;-71
2023/02/12 03:11:04;;;;;;;14.77;6.37;;;6.60;99.90;;;;;;5048621;28;20199;-71
2023/02/12 03:13:36;;;;;;;13.63;6.43;;;6.60;99.90;;;;;;5061321;28;20195;-71
2023/02/12 03:16:08;;;;;;;15.20;6.20;;;6.60;99.90;;;;;;5068463;28;20288;-71
2023/02/12 03:18:43;;;;;;;13.33;6.10;;;6.60;99.90;;;;;;5068751;28;20291;-71
2023/02/12 03:21:14;;;;;;;15.17;5.83;;;6.60;99.90;;;;;;5066714;28;20289;-71
2023/02/12 03:23:46;;;;;;;15.07;6.93;;;6.60;99.90;;;;;;5067568;28;20247;-72
2023/02/12 03:26:19;;;;;;;15.17;6.37;;;6.60;99.90;;;;;;5048396;28;20200;-71
2023/02/12 03:28:46;;;;;;;15.10;7.27;;;6.60;99.90;;;;;;5055528;28;20215;-71
2023/02/12 03:31:28;;;;;;;14.83;6.07;;;6.60;99.90;;;;;;5068005;28;20753;-71
2023/02/12 03:34:05;;;;;;;15.33;6.27;;;6.60;99.90;;;;;;5068911;28;20718;-71
2023/02/12 03:36:41;;;;;;;14.03;6.30;;;6.60;99.90;;;;;;5081808;28;20238;-71
2023/02/12 03:39:13;;;;;;;10.70;5.90;;;6.60;99.90;;;;;;5055192;28;20761;-71
2023/02/12 03:41:45;;;;;;;15.30;6.10;;;6.60;99.90;;;;;;5047745;28;20295;-71
2023/02/12 03:44:20;;;;;;;16.47;6.07;;;6.60;99.90;;;;;;5047672;28;20315;-73
2023/02/12 03:46:58;;;;;;;12.60;6.10;;;6.60;99.90;;;;;;5047533;28;20713;-71
2023/02/12 03:49:31;;;;;;;12.17;6.13;;;6.60;99.90;;;;;;5074856;28;20191;-71
2023/02/12 03:51:59;;;;;;;16.20;5.90;;;6.60;99.90;;;;;;5068920;28;20777;-71
2023/02/12 03:54:27;;;;;;;19.77;6.30;;;6.60;99.90;;;;;;5067055;28;20752;-71
2023/02/12 03:56:57;;;;;;;15.70;5.83;;;6.60;99.90;;;;;;5067773;28;20294;-71
2023/02/12 03:59:25;;;;;;;16.07;5.80;;;6.60;99.90;;;;;;5067936;28;20199;-71
2023/02/12 04:01:55;;;;;;;16.93;6.03;;;6.60;99.90;;;;;;5084498;28;20289;-72
2023/02/12 04:04:24;;;;;;;15.23;6.67;;;6.60;99.90;;;;;;5087824;28;20229;-72
2023/02/12 04:06:53;;;;;;;17.90;6.00;;;6.60;99.90;;;;;;5079326;28;20206;-74
2023/02/12 04:09:21;;;;;;;17.43;6.47;;;6.60;99.90;;;;;;5087502;28;20372;-71
2023/02/12 04:12:00;;;;;;;16.77;6.30;;;6.60;99.90;;;;;;5087548;28;20213;-72
2023/02/12 04:14:35;;;;;;;15.50;6.00;;;6.50;99.90;;;;;;5047701;28;20283;-71
2023/02/12 04:17:09;;;;;;;18.83;6.03;;;6.60;99.90;;;;;;5061480;28;20314;-72
2023/02/12 04:19:50;;;;;;;16.93;6.17;;;6.50;99.90;;;;;;5067384;28;20286;-72
2023/02/12 04:22:31;;;;;;;19.77;6.40;;;6.50;99.90;;;;;;5084348;28;20260;-71
2023/02/12 04:25:07;;;;;;;13.00;6.30;;;6.60;99.90;;;;;;5076016;28;20196;-72
2023/02/12 04:27:39;;;;;;;13.07;5.47;;;6.60;99.90;;;;;;5077270;28;20187;-72
2023/02/12 04:30:13;;;;;;;14.30;6.07;;;6.60;99.90;;;;;;5068903;28;20298;-72
2023/02/12 04:32:46;;;;;;;16.40;6.23;;;6.60;99.90;;;;;;5071216;28;20277;-73
2023/02/12 04:35:20;;;;;;;13.60;5.97;;;6.50;99.90;;;;;;5087583;28;20201;-72
2023/02/12 04:37:54;;;;;;;15.70;5.80;;;6.50;99.90;;;;;;5085862;28;20295;-72
2023/02/12 04:40:22;;;;;;;17.37;6.63;;;6.50;99.90;;;;;;5047184;28;20627;-73
2023/02/12 04:42:51;;;;;;;17.33;5.97;;;6.50;99.90;;;;;;5063052;28;20249;-72
2023/02/12 04:45:22;;;;;;;11.93;5.57;;;6.60;99.90;;;;;;5087409;28;20312;-72
2023/02/12 04:47:49;;;;;;;15.03;5.93;;;6.60;99.90;;;;;;5087534;28;20311;-72
2023/02/12 04:50:16;;;;;;;18.87;5.97;;;6.60;99.90;;;;;;5087212;28;20223;-74
2023/02/12 04:52:43;;;;;;;11.67;5.57;;;6.60;99.90;;;;;;5086579;28;20285;-72
2023/02/12 04:55:12;;;;;;;16.43;6.63;;;6.60;99.90;;;;;;5087454;28;20298;-73
2023/02/12 04:57:38;;;;;;;13.57;6.50;;;6.60;99.90;;;;;;5086825;28;20291;-73
2023/02/12 05:00:07;;;;;;;17.87;6.97;;;6.50;99.90;;;;;;5089947;28;20306;-73
2023/02/12 05:02:34;;;;;;;14.10;6.07;;;6.60;99.90;;;;;;5059744;28;20287;-72
2023/02/12 05:05:01;;;;;;;17.37;6.07;;;6.60;99.90;;;;;;5063064;28;20230;-73
2023/02/12 05:07:28;;;;;;;13.77;6.30;;;6.60;99.90;;;;;;5091196;28;20211;-73
2023/02/12 05:09:55;;;;;;;13.93;5.77;;;6.50;99.90;;;;;;5090619;28;20301;-73
2023/02/12 05:12:23;;;;;;;15.50;6.47;;;6.50;99.90;;;;;;5082691;28;20573;-73
2023/02/12 05:14:50;;;;;;;9.87;6.00;;;6.50;99.90;;;;;;5070204;28;20207;-73
2023/02/12 05:17:17;;;;;;;14.33;6.13;;;6.50;99.90;;;;;;5086177;28;20657;-72
2023/02/12 05:19:44;;;;;;;11.33;6.00;;;6.50;99.90;;;;;;5090575;28;20234;-73
2023/02/12 05:22:10;;;;;;;15.43;6.13;;;6.50;99.90;;;;;;5090700;28;20322;-73
2023/02/12 05:24:37;;;;;;;16.03;6.30;;;6.40;99.90;;;;;;5090317;28;20779;-73
2023/02/12 05:27:04;;;;;;;16.43;6.50;;;6.40;99.90;;;;;;5090692;28;20230;-73
2023/02/12 05:29:32;;;;;;;13.77;5.90;;;6.40;99.90;;;;;;5090673;28;20282;-73
2023/02/12 05:31:59;;;;;;;16.50;6.10;;;6.50;99.90;;;;;;5090846;28;20318;-73
2023/02/12 05:34:26;;;;;;;14.40;5.97;;;6.40;99.90;;;;;;5086998;28;20296;-73
2023/02/12 05:36:53;;;;;;;14.03;5.50;;;6.40;99.90;;;;;;5086454;28;20751;-73
2023/02/12 05:39:20;;;;;;;10.37;5.80;;;6.40;99.90;;;;;;5076049;28;20215;-73
2023/02/12 05:41:47;;;;;;;14.37;5.40;;;6.50;99.90;;;;;;5070438;28;20623;-73
2023/02/12 05:44:14;;;;;;;14.40;5.73;;;6.50;99.90;;;;;;5070204;28;20317;-72
2023/02/12 05:46:42;;;;;;;10.60;5.20;;;6.50;99.90;;;;;;5070034;28;20215;-72
2023/02/12 05:49:10;;;;;;;9.90;5.27;;;6.50;99.90;;;;;;5070154;28;20761;-72
2023/02/12 05:51:39;;;;;;;8.27;4.70;;;6.40;99.90;;;;;;5087189;28;20215;-72
2023/02/12 05:54:07;;;;;;;10.23;5.30;;;6.40;99.90;;;;;;5090090;28;20238;-72
2023/02/12 05:56:35;;;;;;;13.03;5.60;;;6.40;99.90;;;;;;5090543;28;20205;-72
2023/02/12 05:59:04;;;;;;;11.67;5.23;;;6.40;99.90;;;;;;5054923;28;20234;-72
2023/02/12 06:01:33;;;;;;;7.63;4.67;;;6.40;99.90;;;;;;5061891;28;20751;-71
2023/02/12 06:04:03;;;;;;;8.27;5.20;;;6.40;99.90;;;;;;5090334;28;20325;-70
2023/02/12 06:06:30;;;;;;;10.43;5.00;;;6.40;99.90;;;;;;5090058;28;20294;-70
2023/02/12 06:08:58;;;;;;;9.37;4.87;;;6.30;99.90;;;;;;5078578;28;20297;-70
2023/02/12 06:11:25;;;;;;;15.07;4.87;;;6.40;99.90;;;;;;5069376;28;20299;-70
2023/02/12 06:13:52;;;;;;;12.97;5.10;;;6.30;99.90;;;;;;5076708;28;20289;-71
2023/02/12 06:16:22;;;;;;;14.97;5.17;;;6.30;99.90;;;;;;5089747;28;20242;-71
2023/02/12 06:18:49;;;;;;;10.63;4.70;;;6.30;99.90;;;;;;5089461;28;20203;-71
2023/02/12 06:21:18;;;;;;;13.60;5.37;;;6.30;99.90;;;;;;5089614;28;20740;-70
2023/02/12 06:23:46;;;;;;;16.13;5.70;;;6.30;99.90;;;;;;5088970;28;20242;-72
2023/02/12 06:26:13;;;;;;;9.87;5.70;;;6.30;99.90;;;;;;5081706;28;20743;-70
2023/02/12 06:28:40;;;;;;;12.93;5.37;;;6.30;99.90;;;;;;5069164;28;20209;-71
2023/02/12 06:31:20;;;;;;;13.33;5.23;;;6.30;99.90;;;;;;5073312;28;20303;-71
2023/02/12 06:33:47;;;;;;;10.40;5.37;;;6.40;99.90;;;;;;5069261;28;20233;-71
2023/02/12 06:36:14;;;;;;;8.70;4.13;;;6.40;99.90;;;;;;5079926;28;20310;-71
2023/02/12 06:38:42;;;;;;;11.63;5.80;;;6.40;99.90;;;;;;5079924;28;20725;-72
2023/02/12 06:41:09;;;;;;;10.93;4.87;;;6.40;99.90;;;;;;5068814;28;20573;-72
2023/02/12 06:43:37;;;;;;;16.83;5.03;;;6.50;99.90;;;;;;5068554;28;20285;-72
2023/02/12 06:46:05;;;;;;;10.23;4.77;;;6.50;99.90;;;;;;5068899;28;20235;-71
2023/02/12 06:48:32;;;;;;;13.07;4.43;;;6.50;99.90;;;;;;5068886;28;20303;-71
2023/02/12 06:51:04;;;;;;;11.67;5.17;;;6.50;99.90;;;;;;5068603;28;20281;-72
2023/02/12 06:53:32;;;;;;;13.50;5.10;;;6.50;99.90;;;;;;5065745;28;20327;-72
2023/02/12 06:56:02;;;;;;;15.03;4.83;;;6.50;99.90;;;;;;5048805;28;20618;-72
2023/02/12 06:58:29;;;;;;;12.33;5.20;;;6.40;99.90;;;;;;5048430;28;20291;-70
2023/02/12 07:00:56;;;;;;;13.83;4.97;;;6.40;99.90;;;;;;5048166;28;20571;-70
2023/02/12 07:03:23;;;;;;;17.67;5.77;;;6.40;99.90;;;;;;5048331;28;20239;-70
2023/02/12 07:05:50;;;;;;;14.33;4.20;;;6.40;99.90;;;;;;5071868;28;20298;-70
2023/02/12 07:08:17;;;;;;;14.97;4.87;;;6.40;99.90;;;;;;5088763;28;20309;-72
2023/02/12 07:10:48;;;;;;;13.53;5.70;;;6.40;99.90;;;;;;5088665;28;20289;-72
2023/02/12 07:13:17;;;;;;;13.40;5.40;;;6.40;99.90;;;;;;5088729;28;20649;-71
2023/02/12 07:15:44;;;;;;;13.40;5.10;;;6.40;99.90;;;;;;5088140;28;20297;-71
2023/02/12 07:18:10;;;;;;;13.47;5.17;;;6.40;99.90;;;;;;5083833;28;20250;-71
2023/02/12 07:20:37;;;;;;;13.93;4.63;;;6.40;99.90;;;;;;5048085;28;20291;-71
2023/02/12 07:23:04;;;;;;;16.40;5.43;;;6.40;99.90;;;;;;5047362;28;20276;-70
2023/02/12 07:25:31;;;;;;;10.87;4.53;;;6.50;99.90;;;;;;5050319;28;20342;-70
2023/02/12 07:27:58;;;;;;;14.30;5.10;;;6.40;99.90;;;;;;5068280;28;20286;-70
2023/02/12 07:30:26;;;;;;;17.97;5.60;;;6.40;99.90;;;;;;5063844;28;20195;-70
2023/02/12 07:32:53;;;;;;;15.87;5.20;;;6.50;99.90;;;;;;5062441;28;20202;-70
2023/02/12 07:35:20;;;;;;;12.00;5.03;;;6.50;99.90;;;;;;5088465;28;20740;-70
2023/02/12 07:37:47;;;;;;;10.83;5.60;;;6.50;99.90;;;;;;5080614;28;20290;-71
2023/02/12 07:40:14;;;;;;;17.07;4.93;;;6.40;99.90;;;;;;5048321;28;20291;-72
2023/02/12 07:42:41;;;;;;;14.27;5.27;;;6.40;99.90;;;;;;5048375;28;20307;-73
2023/02/12 07:45:09;;;;;;;13.90;5.10;;;6.40;99.90;;;;;;5048245;28;20238;-73
2023/02/12 07:47:37;;;;;;;16.43;5.00;;;6.40;99.90;;;;;;5047885;28;20215;-71
2023/02/12 07:50:06;;;;;;;15.90;5.17;;;6.50;99.90;;;;;;5056698;28;20310;-71
2023/02/12 07:52:33;;;;;;;15.87;5.37;;;6.50;99.90;;;;;;5046031;28;20208;-70
2023/02/12 07:55:00;;;;;;;11.97;4.80;;;6.50;99.90;;;;;;5046669;28;20289;-69
2023/02/12 07:57:27;;;;;;;13.10;5.20;;;6.50;99.90;;;;;;5047318;28;20290;-70
2023/02/12 07:59:54;;;;;;;14.30;4.27;;;6.50;99.90;;;;;;5045588;28;20235;-70
2023/02/12 08:02:21;;;;;;;13.63;4.57;;;6.50;99.90;;;;;;5064245;28;20307;-70
2023/02/12 08:04:49;;;;;;;11.23;4.47;;;6.50;99.90;;;;;;5065231;28;20253;-70
2023/02/12 08:07:17;;;;;;;12.97;4.70;;;6.40;99.90;;;;;;5084689;28;20260;-70
2023/02/12 08:09:44;;;;;;;13.17;4.50;;;6.40;99.90;;;;;;5076543;28;20241;-70
2023/02/12 08:12:11;;;;;;;8.50;4.03;;;6.50;99.90;;;;;;5065484;28;20215;-70
2023/02/12 08:14:37;;;;;;;8.30;4.20;;;6.50;99.90;;;;;;5078048;28;20217;-69
2023/02/12 08:17:04;;;;;;;13.90;4.93;;;6.50;99.90;;;;;;5086058;28;20301;-69
2023/02/12 08:19:31;;;;;;;12.43;5.00;;;6.50;99.90;;;;;;5085260;28;20206;-71
2023/02/12 08:22:01;;;;;;;10.97;4.63;;;6.50;99.90;;;;;;5085548;28;20272;-70
2023/02/12 08:24:29;;;;;;;11.80;4.53;;;6.50;99.90;;;;;;5071120;28;20229;-70
2023/02/12 08:26:56;;;;;;;10.50;4.47;;;6.50;99.90;;;;;;5080604;28;20317;-70
2023/02/12 08:29:25;;;;;;;11.57;4.47;;;6.50;99.90;;;;;;5085146;28;20297;-70
2023/02/12 08:31:56;;;;;;;13.47;4.60;;;6.60;99.90;;;;;;5069761;28;20290;-68
2023/02/12 08:34:25;;;;;;;13.23;4.87;;;6.60;99.90;;;;;;5067047;28;20967;-69
2023/02/12 08:36:53;;;;;;;13.67;5.27;;;6.60;99.90;;;;;;5085806;28;20541;-70
2023/02/12 08:39:23;;;;;;;13.67;4.80;;;6.60;99.90;;;;;;5074774;28;20294;-73
2023/02/12 08:41:50;;;;;;;14.23;4.83;;;6.60;99.90;;;;;;5069516;28;20496;-73
2023/02/12 08:44:17;;;;;;;15.47;5.70;;;6.70;99.90;;;;;;5068902;28;20922;-73
2023/02/12 08:46:46;;;;;;;16.23;5.53;;;6.70;99.90;;;;;;5060168;28;20327;-73
2023/02/12 08:49:15;;;;;;;14.43;4.50;;;6.80;99.90;;;;;;5054033;28;20764;-73
2023/02/12 08:51:44;;;;;;;12.70;4.60;;;6.70;99.90;;;;;;5068648;28;20227;-72
2023/02/12 08:54:13;;;;;;;10.77;4.60;;;6.70;99.90;;;;;;5068158;28;20302;-73
2023/02/12 08:56:44;;;;;;;17.73;6.23;;;6.80;99.90;;;;;;5066529;28;20287;-74
2023/02/12 08:59:12;;;;;;;16.73;5.27;;;6.80;99.90;;;;;;5067085;28;20223;-71
2023/02/12 09:01:40;;;;;;;14.33;4.97;;;6.80;99.90;;;;;;5068509;28;20207;-72
2023/02/12 09:04:08;;;;;;;14.43;4.90;;;6.90;99.90;;;;;;5068939;28;20214;-75
2023/02/12 09:06:35;;;;;;;12.90;4.83;;;6.90;99.90;;;;;;5082921;28;20213;-72
2023/02/12 09:09:03;;;;;;;16.10;6.57;;;6.90;99.90;;;;;;5089083;28;20209;-72
2023/02/12 09:11:30;;;;;;;19.80;5.73;;;6.90;99.90;;;;;;5088881;28;20760;-73
2023/02/12 09:14:00;;;;;;;15.73;4.60;;;6.90;99.90;;;;;;5076822;28;20265;-73
2023/02/12 09:16:27;;;;;;;17.63;4.97;;;7.00;99.90;;;;;;5069376;28;20290;-73
2023/02/12 09:18:54;;;;;;;18.83;5.90;;;7.00;99.90;;;;;;5068896;28;20554;-73
2023/02/12 09:21:22;;;;;;;11.83;4.90;;;7.00;99.90;;;;;;5068205;28;20211;-73
2023/02/12 09:23:49;;;;;;;21.20;9.67;;;7.00;99.90;;;;;;5067827;28;20673;-72
2023/02/12 09:26:21;;;;;;;15.27;5.83;;;7.00;99.90;;;;;;5068462;28;20353;-73
2023/02/12 09:28:48;;;;;;;17.23;5.57;;;7.00;99.90;;;;;;5068222;28;20206;-72
2023/02/12 09:31:19;;;;;;;18.00;6.53;;;7.10;99.90;;;;;;5057201;28;20211;-73
2023/02/12 09:33:46;;;;;;;16.90;6.20;;;7.00;99.90;;;;;;5054154;28;20204;-75
2023/02/12 09:36:15;;;;;;;18.43;6.10;;;7.10;99.90;;;;;;5068467;28;20727;-72
2023/02/12 09:38:42;;;;;;;12.87;5.40;;;7.10;99.90;;;;;;5068652;28;20209;-72
2023/02/12 09:41:24;;;;;;;20.93;5.90;;;7.20;99.90;;;;;;5070124;28;20294;-72
2023/02/12 09:43:56;;;;;;;20.57;6.73;;;7.20;99.90;;;;;;5059388;28;20206;-72
2023/02/12 09:46:30;;;;;;;19.10;6.23;;;7.20;99.90;;;;;;5079995;28;20227;-72
2023/02/12 09:49:07;;;;;;;19.90;6.43;;;7.20;99.90;;;;;;5070395;28;20227;-73
2023/02/12 09:51:34;;;;;;;16.23;6.33;;;7.30;99.90;;;;;;5076307;28;20313;-73
2023/02/12 09:54:05;;;;;;;21.67;6.87;;;7.20;99.90;;;;;;5074183;28;20215;-72
2023/02/12 09:56:35;;;;;;;15.63;7.20;;;7.30;99.90;;;;;;5069515;28;20748;-72
2023/02/12 09:59:05;;;;;;;20.63;7.17;;;7.30;99.90;;;;;;5067861;28;20698;-72
2023/02/12 10:01:33;;;;;;;18.97;7.70;;;7.30;99.90;;;;;;5069453;28;20860;-72
2023/02/12 10:04:01;;;;;;;18.10;7.00;;;7.20;99.90;;;;;;5068060;28;20306;-72
2023/02/12 10:06:30;;;;;;;19.20;7.77;;;7.20;99.90;;;;;;5067840;28;20351;-71
2023/02/12 10:09:03;;;;;;;25.30;7.70;;;7.20;99.90;;;;;;5067186;28;20219;-72
2023/02/12 10:11:43;;;;;;;19.60;7.67;;;7.20;99.90;;;;;;5067412;28;20562;-72
2023/02/12 10:14:36;;;;;;;19.50;7.63;;;7.30;99.90;;;;;;5067359;28;20748;-72
2023/02/12 10:17:13;;;;;;;16.90;7.90;;;7.30;99.90;;;;;;5067315;28;20235;-73
2023/02/12 10:20:30;;;;;;;14.33;8.60;;;7.30;99.90;;;;;;5067617;28;20219;-72
2023/02/12 10:23:09;;;;;;;20.67;10.13;;;7.30;99.90;;;;;;5051783;28;20323;-73
2023/02/12 10:25:44;;;;;;;20.03;8.90;;;7.30;99.90;;;;;;5071596;28;20226;-71
2023/02/12 10:28:15;;;;;;;15.27;7.80;;;7.30;99.90;;;;;;5073139;28;20206;-72
2023/02/12 10:30:48;;;;;;;16.50;9.40;;;7.40;99.90;;;;;;5067337;28;20198;-72
2023/02/12 10:33:19;;;;;;;17.73;10.03;;;7.40;99.90;;;;;;5067516;28;20333;-71
2023/02/12 10:35:54;;;;;;;17.00;8.73;;;7.40;99.90;;;;;;5067995;28;20286;-72
2023/02/12 10:38:26;;;;;;;23.80;9.17;;;7.50;99.90;;;;;;5065763;28;20218;-72
2023/02/12 10:40:56;;;;;;;23.93;8.33;;;7.50;99.90;;;;;;5047168;28;20304;-72
2023/02/12 10:43:24;;;;;;;20.37;9.23;;;7.50;99.90;;;;;;5047598;28;20188;-73
2023/02/12 10:45:51;;;;;;;16.90;7.73;;;7.50;99.90;;;;;;5066653;28;20715;-72
2023/02/12 10:48:22;;;;;;;16.67;8.60;;;7.50;99.90;;;;;;5067323;28;20282;-72
2023/02/12 10:50:57;;;;;;;16.50;8.67;;;7.40;99.90;;;;;;5066003;28;20227;-72
2023/02/12 10:53:29;;;;;;;18.73;9.17;;;7.50;99.90;;;;;;5066307;28;20310;-72
2023/02/12 10:56:16;;;;;;;18.70;9.00;;;7.50;99.90;;;;;;5066378;28;20211;-72
2023/02/12 10:58:52;;;;;;;17.57;9.23;;;7.50;99.90;;;;;;5052597;28;20298;-72
2023/02/12 11:01:24;;;;;;;17.13;8.37;;;7.40;99.90;;;;;;5063023;28;20199;-72
2023/02/12 11:03:53;;;;;;;16.90;7.57;;;7.40;99.90;;;;;;5066526;28;20203;-71
2023/02/12 11:06:24;;;;;;;15.57;8.07;;;7.40;99.90;;;;;;5078033;28;20323;-72
2023/02/12 11:08:52;;;;;;;12.83;7.33;;;7.40;99.90;;;;;;5086273;28;20724;-72
2023/02/12 11:11:24;;;;;;;13.70;7.33;;;7.50;99.90;;;;;;5086665;28;20661;-72
2023/02/12 11:13:56;;;;;;;10.53;6.90;;;7.40;99.90;;;;;;5086585;28;20214;-72
2023/02/12 11:16:31;;;;;;;11.90;7.77;;;7.40;99.90;;;;;;5077402;28;20314;-71
2023/02/12 11:19:03;;;;;;;15.97;7.73;;;7.40;99.90;;;;;;5066766;28;20253;-73
2023/02/12 11:21:31;;;;;;;11.40;6.67;;;7.40;99.90;;;;;;5066618;28;20188;-72
2023/02/12 11:24:28;;;;;;;10.53;6.87;;;7.50;99.90;;;;;;5066629;28;20199;-72
2023/02/12 11:27:12;;;;;;;12.33;7.30;;;7.50;99.90;;;;;;5066901;28;20330;-72
2023/02/12 11:29:40;;;;;;;16.43;7.13;;;7.60;99.90;;;;;;5066720;28;20199;-73
2023/02/12 11:32:15;;;;;;;10.53;7.07;;;7.70;99.90;;;;;;5047728;28;20242;-72
2023/02/12 11:34:43;;;;;;;13.70;6.70;;;7.70;99.90;;;;;;5047997;28;20279;-72
2023/02/12 11:37:16;;;;;;;10.37;6.23;;;7.70;99.90;;;;;;5085061;28;20370;-72
2023/02/12 11:39:47;;;;;;;12.50;6.87;;;7.70;99.90;;;;;;5068547;28;20662;-72
2023/02/12 11:42:18;;;;;;;12.30;6.77;;;7.70;99.90;;;;;;5066310;28;20195;-71
2023/02/12 11:44:50;;;;;;;12.77;7.13;;;7.60;99.90;;;;;;5066059;28;20294;-72
2023/02/12 11:47:20;;;;;;;13.73;6.87;;;7.60;99.90;;;;;;5065735;28;20284;-72
2023/02/12 11:49:54;;;;;;;14.10;7.67;;;7.60;99.90;;;;;;5083637;28;20219;-74
2023/02/12 11:52:24;;;;;;;13.40;6.60;;;7.60;99.90;;;;;;5086242;28;20665;-74
2023/02/12 11:54:53;;;;;;;12.13;6.93;;;7.50;99.90;;;;;;5086021;28;20298;-72
2023/02/12 11:57:36;;;;;;;15.17;7.20;;;7.50;99.90;;;;;;5086159;28;20606;-71
2023/02/12 12:00:06;;;;;;;10.00;6.07;;;7.50;99.90;;;;;;5085611;28;20317;-71
2023/02/12 12:02:38;;;;;;;13.93;6.97;;;7.50;99.90;;;;;;5086257;28;20306;-72
2023/02/12 12:05:11;;;;;;;11.80;8.27;;;7.50;99.90;;;;;;5086344;28;20190;-71
2023/02/12 12:07:43;;;;;;;12.37;7.47;;;7.50;99.90;;;;;;5086119;28;20195;-71
2023/02/12 12:10:17;;;;;;;12.53;7.33;;;7.50;99.90;;;;;;5086454;28;20230;-72
2023/02/12 12:12:49;;;;;;;14.33;7.43;;;7.60;99.90;;;;;;5076691;28;20227;-72
2023/02/12 12:21:14;;;;;;;13.03;7.27;;;7.70;99.90;;;;;;5065679;28;20237;-71
2023/02/12 12:23:44;;;;;;;10.67;6.87;;;7.90;99.90;;;;;;5064990;28;20262;-71
2023/02/12 12:26:16;;;;;;;10.43;6.40;;;7.90;99.90;;;;;;5065830;28;20239;-72
2023/02/12 12:28:48;;;;;;;13.03;8.17;;;7.90;99.90;;;;;;5066203;28;20195;-72
2023/02/12 12:31:19;;;;;;;10.03;6.83;;;8.00;99.90;;;;;;5065756;28;20199;-71
2023/02/12 12:33:49;;;;;;;9.80;6.10;;;8.00;99.90;;;;;;5066041;28;20290;-71
2023/02/12 12:37:05;;;;;;;7.10;5.67;;;8.00;99.90;;;;;;5077108;28;20290;-72
2023/02/12 12:39:38;;;;;;;8.27;6.20;;;8.10;99.90;;;;;;5016706;28;20713;-72
2023/02/12 12:42:45;;;;;;;6.40;5.13;;;8.20;99.90;;;;;;5028029;28;20315;-72
2023/02/12 12:45:29;;;;;;;9.43;5.60;;;8.30;99.90;;;;;;5035229;28;20303;-72
2023/02/12 12:48:10;;;;;;;9.00;5.30;;;8.60;99.90;;;;;;5054964;28;20282;-71
2023/02/12 12:51:03;;;;;;;6.00;4.40;;;8.80;99.90;;;;;;5065682;28;20259;-71
2023/02/12 12:53:47;;;;;;;5.27;4.47;;;9.00;99.90;;;;;;5065786;28;20261;-71
2023/02/12 12:56:31;;;;;;;6.77;5.10;;;9.20;99.90;;;;;;5065508;28;20303;-72
2023/02/12 12:59:20;;;;;;;7.40;4.87;;;9.30;99.90;;;;;;5068458;28;20679;-72
2023/02/12 13:02:11;;;;;;;5.80;4.80;;;9.40;99.90;;;;;;5085215;28;20217;-72
2023/02/12 13:04:52;;;;;;;4.43;4.00;;;9.50;99.90;;;;;;5074180;28;20744;-71
2023/02/12 13:07:32;;;;;;;4.40;4.00;;;9.50;99.90;;;;;;5085367;28;20322;-70
2023/02/12 13:10:19;;;;;;;4.90;4.43;;;9.50;99.90;;;;;;5066224;28;20733;-70
2023/02/12 13:13:04;;;;;;;4.43;4.00;;;9.40;99.90;;;;;;5065064;28;20219;-71
2023/02/12 13:15:39;;;;;;;4.23;3.83;;;9.30;99.90;;;;;;5065113;28;20199;-71
2023/02/12 13:18:22;;;;;;;4.23;3.53;;;9.20;99.90;;;;;;5065376;28;20202;-71